sensor_id;sensor_type;location;lat;lon;timestamp;pressure;altitude;pressure_sealevel;temperature;humidity
46430;BME280;32131;53.454;-6.180;2023-02-28T00:00:21;103644.53;;;6.95;81.84
46430;BME280;32131;53.454;-6.180;2023-02-28T00:02:49;103638.63;;;6.96;81.93
46430;BME280;32131;53.454;-6.180;2023-02-28T00:05:19;103643.88;;;6.98;82.14
46430;BME280;32131;53.454;-6.180;2023-02-28T00:07:48;103638.97;;;7.01;82.05
46430;BME280;32131;53.454;-6.180;2023-02-28T00:10:17;103639.84;;;7.01;82.02
46430;BME280;32131;53.454;-6.180;2023-02-28T00:12:47;103644.31;;;7.04;82.36
46430;BME280;32131;53.454;-6.180;2023-02-28T00:15:16;103642.66;;;7.04;82.80
46430;BME280;32131;53.454;-6.180;2023-02-28T00:17:46;103646.13;;;7.05;82.91
46430;BME280;32131;53.454;-6.180;2023-02-28T00:20:14;103646.13;;;7.05;83.19
46430;BME280;32131;53.454;-6.180;2023-02-28T00:22:44;103639.97;;;7.03;83.63
46430;BME280;32131;53.454;-6.180;2023-02-28T00:25:13;103642.53;;;7.03;84.21
46430;BME280;32131;53.454;-6.180;2023-02-28T00:27:42;103646.91;;;7.04;83.92
46430;BME280;32131;53.454;-6.180;2023-02-28T00:30:13;103647.66;;;7.03;83.78
46430;BME280;32131;53.454;-6.180;2023-02-28T00:32:42;103648.59;;;7.03;84.33
46430;BME280;32131;53.454;-6.180;2023-02-28T00:35:12;103653.59;;;7.02;85.40
46430;BME280;32131;53.454;-6.180;2023-02-28T00:37:41;103656.16;;;7.02;86.00
46430;BME280;32131;53.454;-6.180;2023-02-28T00:40:10;103658.09;;;7.04;85.92
46430;BME280;32131;53.454;-6.180;2023-02-28T00:42:39;103657.44;;;7.07;85.76
46430;BME280;32131;53.454;-6.180;2023-02-28T00:45:09;103660.88;;;7.07;86.18
46430;BME280;32131;53.454;-6.180;2023-02-28T00:47:37;103660.09;;;7.08;86.22
46430;BME280;32131;53.454;-6.180;2023-02-28T00:50:07;103656.84;;;7.11;86.28
46430;BME280;32131;53.454;-6.180;2023-02-28T00:52:37;103655.31;;;7.13;86.28
46430;BME280;32131;53.454;-6.180;2023-02-28T00:55:05;103655.56;;;7.16;85.91
46430;BME280;32131;53.454;-6.180;2023-02-28T00:57:34;103659.78;;;7.16;85.93
46430;BME280;32131;53.454;-6.180;2023-02-28T01:00:03;103650.41;;;7.16;86.28
46430;BME280;32131;53.454;-6.180;2023-02-28T01:02:32;103653.97;;;7.18;86.04
46430;BME280;32131;53.454;-6.180;2023-02-28T01:05:00;103659.91;;;7.17;86.38
46430;BME280;32131;53.454;-6.180;2023-02-28T01:07:29;103657.34;;;7.17;86.60
46430;BME280;32131;53.454;-6.180;2023-02-28T01:09:59;103653.09;;;7.18;86.53
46430;BME280;32131;53.454;-6.180;2023-02-28T01:12:28;103648.19;;;7.21;86.35
46430;BME280;32131;53.454;-6.180;2023-02-28T01:14:57;103660.38;;;7.23;86.33
46430;BME280;32131;53.454;-6.180;2023-02-28T01:17:25;103656.25;;;7.26;86.02
46430;BME280;32131;53.454;-6.180;2023-02-28T01:19:54;103668.31;;;7.27;85.85
46430;BME280;32131;53.454;-6.180;2023-02-28T01:22:23;103662.28;;;7.26;86.17
46430;BME280;32131;53.454;-6.180;2023-02-28T01:24:51;103658.69;;;7.24;86.59
46430;BME280;32131;53.454;-6.180;2023-02-28T01:27:21;103651.75;;;7.23;86.42
46430;BME280;32131;53.454;-6.180;2023-02-28T01:29:50;103658.47;;;7.21;87.13
46430;BME280;32131;53.454;-6.180;2023-02-28T01:32:19;103651.53;;;7.20;87.46
46430;BME280;32131;53.454;-6.180;2023-02-28T01:34:48;103653.44;;;7.22;86.93
46430;BME280;32131;53.454;-6.180;2023-02-28T01:37:16;103653.44;;;7.22;87.20
46430;BME280;32131;53.454;-6.180;2023-02-28T01:39:44;103651.66;;;7.21;87.41
46430;BME280;32131;53.454;-6.180;2023-02-28T01:42:12;103662.72;;;7.20;87.43
46430;BME280;32131;53.454;-6.180;2023-02-28T01:45:03;103657.34;;;7.17;87.69
46430;BME280;32131;53.454;-6.180;2023-02-28T01:47:35;103655.56;;;7.16;87.85
46430;BME280;32131;53.454;-6.180;2023-02-28T01:50:06;103667.38;;;7.14;87.88
46430;BME280;32131;53.454;-6.180;2023-02-28T01:52:36;103666.47;;;7.14;87.87
46430;BME280;32131;53.454;-6.180;2023-02-28T01:55:06;103658.75;;;7.14;87.47
46430;BME280;32131;53.454;-6.180;2023-02-28T01:57:36;103661.34;;;7.14;87.92
46430;BME280;32131;53.454;-6.180;2023-02-28T02:00:12;103668.16;;;7.13;88.09
46430;BME280;32131;53.454;-6.180;2023-02-28T02:02:43;103657.00;;;7.13;88.01
46430;BME280;32131;53.454;-6.180;2023-02-28T02:05:16;103654.53;;;7.14;87.88
46430;BME280;32131;53.454;-6.180;2023-02-28T02:07:48;103659.69;;;7.14;87.60
46430;BME280;32131;53.454;-6.180;2023-02-28T02:10:20;103664.81;;;7.14;87.37
46430;BME280;32131;53.454;-6.180;2023-02-28T02:13:00;103666.47;;;7.14;86.93
46430;BME280;32131;53.454;-6.180;2023-02-28T02:15:40;103655.56;;;7.16;86.68
46430;BME280;32131;53.454;-6.180;2023-02-28T02:18:16;103652.22;;;7.17;86.42
46430;BME280;32131;53.454;-6.180;2023-02-28T02:33:23;103656.69;;;7.20;87.24
46430;BME280;32131;53.454;-6.180;2023-02-28T02:36:00;103666.06;;;7.19;87.26
46430;BME280;32131;53.454;-6.180;2023-02-28T02:38:34;103664.25;;;7.18;87.37
46430;BME280;32131;53.454;-6.180;2023-02-28T02:41:11;103662.50;;;7.17;87.41
46430;BME280;32131;53.454;-6.180;2023-02-28T02:43:47;103664.72;;;7.13;87.44
46430;BME280;32131;53.454;-6.180;2023-02-28T02:46:26;103666.44;;;7.02;88.08
46430;BME280;32131;53.454;-6.180;2023-02-28T02:48:59;103662.38;;;6.93;88.44
46430;BME280;32131;53.454;-6.180;2023-02-28T02:51:30;103663.59;;;6.87;88.77
46430;BME280;32131;53.454;-6.180;2023-02-28T02:54:04;103654.97;;;6.86;88.49
46430;BME280;32131;53.454;-6.180;2023-02-28T02:56:35;103657.44;;;6.85;88.32
46430;BME280;32131;53.454;-6.180;2023-02-28T02:59:05;103665.25;;;6.86;87.96
46430;BME280;32131;53.454;-6.180;2023-02-28T03:01:37;103660.13;;;6.86;87.60
46430;BME280;32131;53.454;-6.180;2023-02-28T03:04:09;103662.56;;;6.85;87.66
46430;BME280;32131;53.454;-6.180;2023-02-28T03:06:41;103658.31;;;6.85;87.68
46430;BME280;32131;53.454;-6.180;2023-02-28T03:09:09;103654.97;;;6.86;87.50
46430;BME280;32131;53.454;-6.180;2023-02-28T03:11:37;103655.13;;;6.88;87.52
46430;BME280;32131;53.454;-6.180;2023-02-28T03:14:20;103649.19;;;6.89;87.27
46430;BME280;32131;53.454;-6.180;2023-02-28T03:17:14;103659.69;;;6.92;87.09
46430;BME280;32131;53.454;-6.180;2023-02-28T03:19:55;103648.75;;;6.95;86.94
46430;BME280;32131;53.454;-6.180;2023-02-28T03:22:41;103653.13;;;6.96;86.72
46430;BME280;32131;53.454;-6.180;2023-02-28T03:25:17;103655.94;;;6.99;86.65
46430;BME280;32131;53.454;-6.180;2023-02-28T03:27:55;103653.47;;;7.00;85.93
46430;BME280;32131;53.454;-6.180;2023-02-28T03:30:35;103656.97;;;7.01;86.10
46430;BME280;32131;53.454;-6.180;2023-02-28T03:33:08;103651.00;;;7.02;85.84
46430;BME280;32131;53.454;-6.180;2023-02-28T03:35:42;103651.94;;;7.02;85.70
46430;BME280;32131;53.454;-6.180;2023-02-28T03:38:18;103649.47;;;7.04;85.97
46430;BME280;32131;53.454;-6.180;2023-02-28T03:40:49;103649.56;;;7.05;86.09
46430;BME280;32131;53.454;-6.180;2023-02-28T03:43:23;103658.97;;;7.05;85.87
46430;BME280;32131;53.454;-6.180;2023-02-28T03:45:59;103664.88;;;7.04;85.85
46430;BME280;32131;53.454;-6.180;2023-02-28T03:48:32;103665.66;;;7.03;86.14
46430;BME280;32131;53.454;-6.180;2023-02-28T03:51:03;103664.88;;;7.04;86.06
46430;BME280;32131;53.454;-6.180;2023-02-28T03:53:39;103658.19;;;7.06;86.01
46430;BME280;32131;53.454;-6.180;2023-02-28T03:56:13;103665.00;;;7.05;86.09
46430;BME280;32131;53.454;-6.180;2023-02-28T03:58:48;103670.78;;;7.03;86.30
46430;BME280;32131;53.454;-6.180;2023-02-28T04:01:20;103672.13;;;6.98;86.34
46430;BME280;32131;53.454;-6.180;2023-02-28T04:03:50;103672.19;;;6.87;87.65
46430;BME280;32131;53.454;-6.180;2023-02-28T04:06:21;103664.13;;;6.83;87.86
46430;BME280;32131;53.454;-6.180;2023-02-28T04:08:51;103662.22;;;6.80;88.20
46430;BME280;32131;53.454;-6.180;2023-02-28T04:11:22;103674.94;;;6.79;88.49
46430;BME280;32131;53.454;-6.180;2023-02-28T04:13:52;103673.00;;;6.76;88.77
46430;BME280;32131;53.454;-6.180;2023-02-28T04:16:20;103678.16;;;6.76;88.82
46430;BME280;32131;53.454;-6.180;2023-02-28T04:19:01;103685.06;;;6.77;88.87
46430;BME280;32131;53.454;-6.180;2023-02-28T04:21:30;103680.09;;;6.79;88.90
46430;BME280;32131;53.454;-6.180;2023-02-28T04:24:01;103682.66;;;6.79;89.06
46430;BME280;32131;53.454;-6.180;2023-02-28T04:26:30;103686.88;;;6.78;88.93
46430;BME280;32131;53.454;-6.180;2023-02-28T04:28:58;103688.66;;;6.79;88.86
46430;BME280;32131;53.454;-6.180;2023-02-28T04:31:27;103689.59;;;6.80;89.03
46430;BME280;32131;53.454;-6.180;2023-02-28T04:33:57;103688.66;;;6.79;89.04
46430;BME280;32131;53.454;-6.180;2023-02-28T04:36:25;103691.13;;;6.78;89.17
46430;BME280;32131;53.454;-6.180;2023-02-28T04:38:54;103689.34;;;6.76;89.27
46430;BME280;32131;53.454;-6.180;2023-02-28T04:41:24;103695.34;;;6.77;89.24
46430;BME280;32131;53.454;-6.180;2023-02-28T04:43:54;103693.56;;;6.76;88.81
46430;BME280;32131;53.454;-6.180;2023-02-28T04:46:23;103697.91;;;6.77;88.71
46430;BME280;32131;53.454;-6.180;2023-02-28T04:48:51;103707.41;;;6.78;88.42
46430;BME280;32131;53.454;-6.180;2023-02-28T04:51:21;103707.41;;;6.78;87.91
46430;BME280;32131;53.454;-6.180;2023-02-28T04:53:50;103707.59;;;6.69;88.38
46430;BME280;32131;53.454;-6.180;2023-02-28T04:56:19;103704.72;;;6.54;88.93
46430;BME280;32131;53.454;-6.180;2023-02-28T04:58:49;103704.00;;;6.35;90.00
46430;BME280;32131;53.454;-6.180;2023-02-28T05:01:24;103708.69;;;6.18;90.55
46430;BME280;32131;53.454;-6.180;2023-02-28T05:03:54;103711.28;;;6.08;91.45
46430;BME280;32131;53.454;-6.180;2023-02-28T05:06:24;103711.03;;;6.05;92.01
46430;BME280;32131;53.454;-6.180;2023-02-28T05:08:53;103710.28;;;6.06;92.19
46430;BME280;32131;53.454;-6.180;2023-02-28T05:11:23;103703.06;;;6.02;92.60
46430;BME280;32131;53.454;-6.180;2023-02-28T05:13:55;103710.78;;;5.91;93.78
46430;BME280;32131;53.454;-6.180;2023-02-28T05:16:23;103711.28;;;5.87;94.75
46430;BME280;32131;53.454;-6.180;2023-02-28T05:18:51;103713.97;;;5.89;94.95
46430;BME280;32131;53.454;-6.180;2023-02-28T05:21:29;103711.94;;;5.85;95.38
46430;BME280;32131;53.454;-6.180;2023-02-28T05:23:59;103710.63;;;5.79;96.01
46430;BME280;32131;53.454;-6.180;2023-02-28T05:26:28;103701.03;;;5.77;96.28
46430;BME280;32131;53.454;-6.180;2023-02-28T05:28:58;103708.88;;;5.78;96.62
46430;BME280;32131;53.454;-6.180;2023-02-28T05:31:26;103720.28;;;5.82;96.25
46430;BME280;32131;53.454;-6.180;2023-02-28T05:33:55;103718.59;;;5.82;96.26
46430;BME280;32131;53.454;-6.180;2023-02-28T05:36:23;103714.22;;;5.81;96.26
46430;BME280;32131;53.454;-6.180;2023-02-28T05:38:52;103719.25;;;5.80;97.07
46430;BME280;32131;53.454;-6.180;2023-02-28T05:41:20;103721.81;;;5.80;97.50
46430;BME280;32131;53.454;-6.180;2023-02-28T05:43:49;103730.28;;;5.79;97.78
46430;BME280;32131;53.454;-6.180;2023-02-28T05:46:18;103728.47;;;5.78;98.11
46430;BME280;32131;53.454;-6.180;2023-02-28T05:48:48;103728.84;;;5.82;98.11
46430;BME280;32131;53.454;-6.180;2023-02-28T05:51:16;103730.78;;;5.85;98.34
46430;BME280;32131;53.454;-6.180;2023-02-28T05:53:45;103728.47;;;5.88;98.20
46430;BME280;32131;53.454;-6.180;2023-02-28T05:56:16;103731.31;;;5.91;98.16
46430;BME280;32131;53.454;-6.180;2023-02-28T05:58:44;103733.97;;;5.93;98.22
46430;BME280;32131;53.454;-6.180;2023-02-28T06:01:30;103739.00;;;5.91;98.04
46430;BME280;32131;53.454;-6.180;2023-02-28T06:03:58;103730.38;;;5.91;97.79
46430;BME280;32131;53.454;-6.180;2023-02-28T06:06:27;103726.16;;;5.91;98.00
46430;BME280;32131;53.454;-6.180;2023-02-28T06:08:56;103730.13;;;5.88;97.43
46430;BME280;32131;53.454;-6.180;2023-02-28T06:11:24;103727.44;;;5.86;97.36
46430;BME280;32131;53.454;-6.180;2023-02-28T06:13:55;103733.34;;;5.85;96.83
46430;BME280;32131;53.454;-6.180;2023-02-28T06:16:25;103736.56;;;5.82;96.42
46430;BME280;32131;53.454;-6.180;2023-02-28T06:18:53;103738.84;;;5.79;96.61
46430;BME280;32131;53.454;-6.180;2023-02-28T06:21:23;103742.81;;;5.76;96.18
46430;BME280;32131;53.454;-6.180;2023-02-28T06:23:52;103738.88;;;5.69;96.71
46430;BME280;32131;53.454;-6.180;2023-02-28T06:26:20;103745.91;;;5.61;97.16
46430;BME280;32131;53.454;-6.180;2023-02-28T06:28:49;103750.53;;;5.55;97.37
46430;BME280;32131;53.454;-6.180;2023-02-28T06:31:18;103748.47;;;5.51;97.26
46430;BME280;32131;53.454;-6.180;2023-02-28T06:33:48;103743.09;;;5.48;97.73
46430;BME280;32131;53.454;-6.180;2023-02-28T06:36:17;103742.19;;;5.47;97.68
46430;BME280;32131;53.454;-6.180;2023-02-28T06:38:45;103750.91;;;5.49;97.17
46430;BME280;32131;53.454;-6.180;2023-02-28T06:41:18;103758.88;;;5.53;96.88
46430;BME280;32131;53.454;-6.180;2023-02-28T06:43:46;103766.78;;;5.56;96.59
46430;BME280;32131;53.454;-6.180;2023-02-28T06:46:14;103761.16;;;5.60;96.33
46430;BME280;32131;53.454;-6.180;2023-02-28T06:48:43;103759.75;;;5.63;96.06
46430;BME280;32131;53.454;-6.180;2023-02-28T06:51:15;103755.50;;;5.64;96.18
46430;BME280;32131;53.454;-6.180;2023-02-28T06:53:43;103767.34;;;5.62;95.75
46430;BME280;32131;53.454;-6.180;2023-02-28T06:56:13;103772.31;;;5.60;95.76
46430;BME280;32131;53.454;-6.180;2023-02-28T06:58:45;103768.97;;;5.61;95.20
46430;BME280;32131;53.454;-6.180;2023-02-28T07:01:14;103777.81;;;5.65;95.02
46430;BME280;32131;53.454;-6.180;2023-02-28T07:03:42;103778.34;;;5.71;94.94
46430;BME280;32131;53.454;-6.180;2023-02-28T07:06:11;103782.97;;;5.75;94.66
46430;BME280;32131;53.454;-6.180;2023-02-28T07:08:40;103785.91;;;5.80;94.79
46430;BME280;32131;53.454;-6.180;2023-02-28T07:11:08;103790.00;;;5.78;95.02
46430;BME280;32131;53.454;-6.180;2023-02-28T07:13:37;103792.72;;;5.69;95.20
46430;BME280;32131;53.454;-6.180;2023-02-28T07:16:07;103805.41;;;5.57;95.51
46430;BME280;32131;53.454;-6.180;2023-02-28T07:18:38;103806.91;;;5.45;96.44
46430;BME280;32131;53.454;-6.180;2023-02-28T07:21:08;103812.00;;;5.34;97.59
46430;BME280;32131;53.454;-6.180;2023-02-28T07:23:37;103806.59;;;5.21;98.58
46430;BME280;32131;53.454;-6.180;2023-02-28T07:26:12;103806.81;;;5.14;98.84
46430;BME280;32131;53.454;-6.180;2023-02-28T07:28:42;103816.66;;;5.09;99.09
46430;BME280;32131;53.454;-6.180;2023-02-28T07:31:10;103818.06;;;5.06;99.22
46430;BME280;32131;53.454;-6.180;2023-02-28T07:33:41;103821.09;;;5.01;98.83
46430;BME280;32131;53.454;-6.180;2023-02-28T07:36:10;103814.06;;;4.99;98.21
46430;BME280;32131;53.454;-6.180;2023-02-28T07:38:42;103822.03;;;5.02;98.20
46430;BME280;32131;53.454;-6.180;2023-02-28T07:41:15;103818.94;;;5.06;98.03
46430;BME280;32131;53.454;-6.180;2023-02-28T07:43:43;103822.97;;;5.13;97.72
46430;BME280;32131;53.454;-6.180;2023-02-28T07:46:14;103818.25;;;5.17;96.80
46430;BME280;32131;53.454;-6.180;2023-02-28T07:48:43;103816.97;;;5.23;96.77
46430;BME280;32131;53.454;-6.180;2023-02-28T07:51:12;103821.72;;;5.28;96.58
46430;BME280;32131;53.454;-6.180;2023-02-28T07:53:40;103832.50;;;5.34;96.20
46430;BME280;32131;53.454;-6.180;2023-02-28T07:56:09;103830.22;;;5.38;95.36
46430;BME280;32131;53.454;-6.180;2023-02-28T07:58:39;103831.38;;;5.41;94.62
46430;BME280;32131;53.454;-6.180;2023-02-28T08:01:08;103832.81;;;5.48;94.24
46430;BME280;32131;53.454;-6.180;2023-02-28T08:03:37;103839.59;;;5.58;94.07
46430;BME280;32131;53.454;-6.180;2023-02-28T08:06:17;103836.66;;;5.63;93.34
46430;BME280;32131;53.454;-6.180;2023-02-28T08:08:47;103834.63;;;5.70;92.85
46430;BME280;32131;53.454;-6.180;2023-02-28T08:11:19;103836.16;;;5.78;92.56
46430;BME280;32131;53.454;-6.180;2023-02-28T08:13:49;103839.50;;;5.87;92.35
46430;BME280;32131;53.454;-6.180;2023-02-28T08:16:18;103832.72;;;5.88;89.73
46430;BME280;32131;53.454;-6.180;2023-02-28T08:18:49;103830.53;;;5.92;89.49
46430;BME280;32131;53.454;-6.180;2023-02-28T08:21:19;103834.66;;;6.01;89.17
46430;BME280;32131;53.454;-6.180;2023-02-28T08:23:55;103836.09;;;6.07;88.51
46430;BME280;32131;53.454;-6.180;2023-02-28T08:26:26;103839.31;;;6.15;87.96
46430;BME280;32131;53.454;-6.180;2023-02-28T08:28:57;103844.41;;;6.25;87.90
46430;BME280;32131;53.454;-6.180;2023-02-28T08:31:27;103845.97;;;6.34;87.52
46430;BME280;32131;53.454;-6.180;2023-02-28T08:33:55;103850.06;;;6.42;87.46
46430;BME280;32131;53.454;-6.180;2023-02-28T08:36:28;103837.72;;;6.48;86.93
46430;BME280;32131;53.454;-6.180;2023-02-28T08:39:16;103844.13;;;6.53;86.57
46430;BME280;32131;53.454;-6.180;2023-02-28T08:42:02;103847.72;;;6.55;85.23
46430;BME280;32131;53.454;-6.180;2023-02-28T08:44:36;103849.25;;;6.53;84.23
46430;BME280;32131;53.454;-6.180;2023-02-28T08:47:05;103847.47;;;6.52;83.52
46430;BME280;32131;53.454;-6.180;2023-02-28T08:49:33;103841.44;;;6.52;83.27
46430;BME280;32131;53.454;-6.180;2023-02-28T08:52:02;103841.44;;;6.52;82.24
46430;BME280;32131;53.454;-6.180;2023-02-28T08:54:30;103850.19;;;6.54;81.46
46430;BME280;32131;53.454;-6.180;2023-02-28T08:57:00;103842.59;;;6.55;80.93
46430;BME280;32131;53.454;-6.180;2023-02-28T08:59:28;103848.47;;;6.65;81.02
46430;BME280;32131;53.454;-6.180;2023-02-28T09:01:58;103850.22;;;6.76;80.41
46430;BME280;32131;53.454;-6.180;2023-02-28T09:04:27;103850.19;;;6.86;80.14
46430;BME280;32131;53.454;-6.180;2023-02-28T09:06:57;103844.25;;;6.98;79.16
46430;BME280;32131;53.454;-6.180;2023-02-28T09:09:27;103853.72;;;7.09;78.98
46430;BME280;32131;53.454;-6.180;2023-02-28T09:11:55;103853.91;;;7.22;78.57
46430;BME280;32131;53.454;-6.180;2023-02-28T09:14:24;103859.22;;;7.36;78.03
46430;BME280;32131;53.454;-6.180;2023-02-28T09:16:52;103862.78;;;7.48;77.60
46430;BME280;32131;53.454;-6.180;2023-02-28T09:19:22;103865.66;;;7.63;77.11
46430;BME280;32131;53.454;-6.180;2023-02-28T09:21:51;103852.00;;;7.64;75.89
46430;BME280;32131;53.454;-6.180;2023-02-28T09:24:19;103857.22;;;7.76;76.08
46430;BME280;32131;53.454;-6.180;2023-02-28T09:26:51;103865.31;;;7.93;75.18
46430;BME280;32131;53.454;-6.180;2023-02-28T09:29:29;103858.16;;;8.00;74.24
46430;BME280;32131;53.454;-6.180;2023-02-28T09:31:57;103862.22;;;8.09;72.79
46430;BME280;32131;53.454;-6.180;2023-02-28T09:34:28;103858.34;;;8.14;72.22
46430;BME280;32131;53.454;-6.180;2023-02-28T09:36:57;103858.00;;;8.21;71.50
46430;BME280;32131;53.454;-6.180;2023-02-28T09:39:25;103863.63;;;8.39;70.99
46430;BME280;32131;53.454;-6.180;2023-02-28T09:41:55;103854.81;;;8.47;69.61
46430;BME280;32131;53.454;-6.180;2023-02-28T09:44:26;103857.84;;;8.54;70.11
46430;BME280;32131;53.454;-6.180;2023-02-28T09:47:00;103866.25;;;8.63;69.13
46430;BME280;32131;53.454;-6.180;2023-02-28T09:49:34;103870.88;;;8.67;69.14
46430;BME280;32131;53.454;-6.180;2023-02-28T09:52:09;103869.50;;;8.60;69.31
46430;BME280;32131;53.454;-6.180;2023-02-28T09:54:39;103870.19;;;8.58;69.91
46430;BME280;32131;53.454;-6.180;2023-02-28T09:57:13;103871.97;;;8.59;70.19
46430;BME280;32131;53.454;-6.180;2023-02-28T09:59:54;103873.09;;;8.74;69.72
46430;BME280;32131;53.454;-6.180;2023-02-28T10:05:28;103867.94;;;8.98;68.21
46430;BME280;32131;53.454;-6.180;2023-02-28T10:08:05;103869.63;;;8.98;67.24
46430;BME280;32131;53.454;-6.180;2023-02-28T10:10:39;103866.47;;;8.90;66.88
46430;BME280;32131;53.454;-6.180;2023-02-28T10:13:25;103871.41;;;8.87;66.33
46430;BME280;32131;53.454;-6.180;2023-02-28T10:15:58;103872.84;;;8.95;66.63
46430;BME280;32131;53.454;-6.180;2023-02-28T10:18:30;103862.31;;;9.04;66.84
46430;BME280;32131;53.454;-6.180;2023-02-28T10:21:03;103872.41;;;9.01;66.58
46430;BME280;32131;53.454;-6.180;2023-02-28T10:23:34;103863.91;;;8.90;66.80
46430;BME280;32131;53.454;-6.180;2023-02-28T10:26:10;103864.91;;;8.92;66.92
46430;BME280;32131;53.454;-6.180;2023-02-28T10:28:42;103861.09;;;8.87;66.39
46430;BME280;32131;53.454;-6.180;2023-02-28T10:31:15;103871.53;;;8.76;66.20
46430;BME280;32131;53.454;-6.180;2023-02-28T10:33:45;103868.50;;;8.70;66.00
46430;BME280;32131;53.454;-6.180;2023-02-28T10:36:16;103857.63;;;8.74;66.56
46430;BME280;32131;53.454;-6.180;2023-02-28T10:38:46;103862.34;;;8.80;66.57
46430;BME280;32131;53.454;-6.180;2023-02-28T10:41:18;103868.38;;;8.80;66.66
46430;BME280;32131;53.454;-6.180;2023-02-28T10:44:13;103864.03;;;8.68;66.81
46430;BME280;32131;53.454;-6.180;2023-02-28T10:46:44;103870.28;;;8.59;67.05
46430;BME280;32131;53.454;-6.180;2023-02-28T10:49:14;103869.13;;;8.44;67.57
46430;BME280;32131;53.454;-6.180;2023-02-28T10:51:52;103879.31;;;8.42;68.36
46430;BME280;32131;53.454;-6.180;2023-02-28T10:54:27;103873.16;;;8.40;68.74
46430;BME280;32131;53.454;-6.180;2023-02-28T10:57:15;103875.72;;;8.40;68.96
46430;BME280;32131;53.454;-6.180;2023-02-28T10:59:44;103875.09;;;8.67;69.01
46430;BME280;32131;53.454;-6.180;2023-02-28T11:02:30;103872.88;;;8.71;69.31
46430;BME280;32131;53.454;-6.180;2023-02-28T11:05:00;103871.63;;;8.78;68.78
46430;BME280;32131;53.454;-6.180;2023-02-28T11:07:30;103872.75;;;8.81;69.02
46430;BME280;32131;53.454;-6.180;2023-02-28T11:10:18;103872.84;;;8.83;68.45
46430;BME280;32131;53.454;-6.180;2023-02-28T11:12:48;103867.84;;;8.85;68.10
46430;BME280;32131;53.454;-6.180;2023-02-28T11:15:23;103879.69;;;8.94;67.23
46430;BME280;32131;53.454;-6.180;2023-02-28T11:17:57;103866.56;;;9.03;66.69
46430;BME280;32131;53.454;-6.180;2023-02-28T11:20:28;103864.81;;;9.02;66.28
46430;BME280;32131;53.454;-6.180;2023-02-28T11:23:00;103866.81;;;8.94;66.48
46430;BME280;32131;53.454;-6.180;2023-02-28T11:25:30;103863.66;;;8.87;67.01
46430;BME280;32131;53.454;-6.180;2023-02-28T11:28:01;103867.03;;;8.62;68.07
46430;BME280;32131;53.454;-6.180;2023-02-28T11:30:33;103874.16;;;8.30;69.14
46430;BME280;32131;53.454;-6.180;2023-02-28T11:33:21;103871.22;;;8.26;70.09
46430;BME280;32131;53.454;-6.180;2023-02-28T11:35:52;103873.03;;;8.27;70.87
46430;BME280;32131;53.454;-6.180;2023-02-28T11:38:27;103867.22;;;8.29;70.65
46430;BME280;32131;53.454;-6.180;2023-02-28T11:44:23;103874.44;;;8.81;68.39
46430;BME280;32131;53.454;-6.180;2023-02-28T11:46:57;103870.16;;;9.05;66.94
46430;BME280;32131;53.454;-6.180;2023-02-28T11:49:34;103872.38;;;9.12;65.66
46430;BME280;32131;53.454;-6.180;2023-02-28T11:52:14;103867.34;;;9.26;65.32
46430;BME280;32131;53.454;-6.180;2023-02-28T11:54:59;103862.78;;;9.47;64.52
46430;BME280;32131;53.454;-6.180;2023-02-28T11:57:37;103867.63;;;9.68;63.87
46430;BME280;32131;53.454;-6.180;2023-02-28T12:00:19;103853.25;;;9.97;63.01
46430;BME280;32131;53.454;-6.180;2023-02-28T12:03:02;103854.53;;;10.03;61.37
46430;BME280;32131;53.454;-6.180;2023-02-28T12:05:36;103854.59;;;10.17;60.84
46430;BME280;32131;53.454;-6.180;2023-02-28T12:08:23;103844.09;;;10.27;60.41
46430;BME280;32131;53.454;-6.180;2023-02-28T12:11:05;103860.25;;;10.25;59.50
46430;BME280;32131;53.454;-6.180;2023-02-28T12:13:43;103847.63;;;10.16;59.99
46430;BME280;32131;53.454;-6.180;2023-02-28T12:16:27;103844.84;;;10.13;60.00
46430;BME280;32131;53.454;-6.180;2023-02-28T12:19:09;103843.13;;;10.00;59.17
46430;BME280;32131;53.454;-6.180;2023-02-28T12:21:52;103845.69;;;9.86;59.96
46430;BME280;32131;53.454;-6.180;2023-02-28T12:24:34;103833.16;;;9.79;59.86
46430;BME280;32131;53.454;-6.180;2023-02-28T12:27:10;103841.59;;;9.77;59.67
46430;BME280;32131;53.454;-6.180;2023-02-28T12:29:47;103843.84;;;9.72;59.80
46430;BME280;32131;53.454;-6.180;2023-02-28T12:32:23;103854.63;;;9.66;60.04
46430;BME280;32131;53.454;-6.180;2023-02-28T12:34:57;103843.41;;;9.91;59.86
46430;BME280;32131;53.454;-6.180;2023-02-28T12:37:31;103842.16;;;10.11;59.53
46430;BME280;32131;53.454;-6.180;2023-02-28T12:40:03;103839.06;;;10.03;58.96
46430;BME280;32131;53.454;-6.180;2023-02-28T12:42:40;103843.94;;;9.73;59.12
46430;BME280;32131;53.454;-6.180;2023-02-28T12:45:13;103842.72;;;9.43;60.11
46430;BME280;32131;53.454;-6.180;2023-02-28T12:47:44;103846.38;;;9.21;60.62
46430;BME280;32131;53.454;-6.180;2023-02-28T12:50:15;103840.59;;;9.00;60.57
46430;BME280;32131;53.454;-6.180;2023-02-28T12:52:51;103834.88;;;8.92;61.08
46430;BME280;32131;53.454;-6.180;2023-02-28T12:55:29;103830.84;;;8.84;61.39
46430;BME280;32131;53.454;-6.180;2023-02-28T12:58:08;103828.38;;;8.74;61.34
46430;BME280;32131;53.454;-6.180;2023-02-28T13:00:52;103833.00;;;8.78;61.83
46430;BME280;32131;53.454;-6.180;2023-02-28T13:03:45;103829.72;;;8.80;61.98
46430;BME280;32131;53.454;-6.180;2023-02-28T13:06:49;103824.81;;;8.84;61.58
46430;BME280;32131;53.454;-6.180;2023-02-28T13:09:24;103837.91;;;8.75;61.71
46430;BME280;32131;53.454;-6.180;2023-02-28T13:11:54;103828.53;;;8.52;62.38
46430;BME280;32131;53.454;-6.180;2023-02-28T13:14:29;103825.56;;;8.35;63.25
46430;BME280;32131;53.454;-6.180;2023-02-28T13:17:09;103827.22;;;8.23;63.68
46430;BME280;32131;53.454;-6.180;2023-02-28T13:19:40;103833.91;;;8.09;63.90
46430;BME280;32131;53.454;-6.180;2023-02-28T13:22:17;103821.47;;;8.03;64.21
46430;BME280;32131;53.454;-6.180;2023-02-28T13:24:48;103821.47;;;8.03;64.13
46430;BME280;32131;53.454;-6.180;2023-02-28T13:27:33;103818.38;;;8.07;64.07
46430;BME280;32131;53.454;-6.180;2023-02-28T13:33:28;103809.09;;;8.21;63.90
46430;BME280;32131;53.454;-6.180;2023-02-28T13:36:08;103808.66;;;8.27;64.01
46430;BME280;32131;53.454;-6.180;2023-02-28T13:38:38;103791.09;;;8.21;64.17